ARG1625 SAZB-SAEZ
Flight info
| Callsign | ARG1625 |
|---|---|
| Flight time | 0h 52m |
| Altitude | 23000 |
| Route | PULAS1C PULAS W22 GEBEM DCT EZE |
| Aircraft | B738/M-SDE3FGHIRWY/LB1 |
Departure
| Time | 2026-05-08 00:07 |
|---|---|
| Airport | Comandante Espora Airport (SAZB) |
Arrival
| Time | 2026-05-08 01:00 |
|---|---|
| Airport | Ezeiza International Airport - Ministro Pistarini (SAEZ) |
| Time | Latitude | Longitude | Altitude | Speed | Heading |
|---|---|---|---|---|---|
| 2026-05-07 23:36 | -38.71642 | -62.16312 | 257 ft | 0 kts | 276° |
| 2026-05-07 23:54 | -38.71643 | -62.16282 | 257 ft | 4 kts | 253° |
| 2026-05-07 23:55 | -38.71630 | -62.16256 | 257 ft | 4 kts | 194° |
| 2026-05-07 23:55 | -38.71616 | -62.16256 | 257 ft | 1 kts | 154° |
| 2026-05-07 23:55 | -38.71614 | -62.16257 | 257 ft | 0 kts | 154° |
| 2026-05-07 23:57 | -38.71616 | -62.16256 | 257 ft | 2 kts | 154° |
| 2026-05-07 23:58 | -38.71629 | -62.16246 | 257 ft | 2 kts | 143° |
| 2026-05-07 23:58 | -38.71638 | -62.16228 | 257 ft | 3 kts | 114° |
| 2026-05-07 23:58 | -38.71644 | -62.16198 | 257 ft | 4 kts | 100° |
| 2026-05-07 23:58 | -38.71649 | -62.16152 | 257 ft | 6 kts | 97° |
| 2026-05-07 23:59 | -38.71654 | -62.16090 | 257 ft | 8 kts | 94° |
| 2026-05-07 23:59 | -38.71634 | -62.16025 | 257 ft | 7 kts | 60° |
| 2026-05-07 23:59 | -38.71610 | -62.15973 | 257 ft | 6 kts | 60° |
| 2026-05-07 23:59 | -38.71590 | -62.15929 | 257 ft | 5 kts | 59° |
| 2026-05-08 00:00 | -38.71574 | -62.15898 | 257 ft | 0 kts | 60° |
| 2026-05-08 00:03 | -38.71574 | -62.15897 | 257 ft | 0 kts | 60° |
| 2026-05-08 00:03 | -38.71566 | -62.15872 | 258 ft | 6 kts | 67° |
| 2026-05-08 00:03 | -38.71568 | -62.15787 | 258 ft | 11 kts | 141° |
| 2026-05-08 00:03 | -38.71623 | -62.15754 | 258 ft | 0 kts | 164° |
| 2026-05-08 00:06 | -38.71625 | -62.15754 | 258 ft | 1 kts | 164° |
| 2026-05-08 00:06 | -38.71639 | -62.15749 | 258 ft | 5 kts | 164° |
| 2026-05-08 00:06 | -38.71891 | -62.15658 | 257 ft | 79 kts | 163° |
| 2026-05-08 00:07 | -38.72656 | -62.15377 | 256 ft | 147 kts | 163° |
| 2026-05-08 00:07 | -38.73767 | -62.14966 | 549 ft | 172 kts | 165° |
| 2026-05-08 00:07 | -38.74841 | -62.14396 | 1518 ft | 173 kts | 154° |
| 2026-05-08 00:07 | -38.75522 | -62.12939 | 2032 ft | 220 kts | 109° |
| 2026-05-08 00:08 | -38.75313 | -62.10830 | 2440 ft | 260 kts | 75° |
| 2026-05-08 00:08 | -38.74487 | -62.08642 | 2978 ft | 286 kts | 65° |
| 2026-05-08 00:08 | -38.73431 | -62.06417 | 3834 ft | 297 kts | 63° |
| 2026-05-08 00:08 | -38.72319 | -62.04148 | 4992 ft | 296 kts | 63° |
| 2026-05-08 00:09 | -38.71269 | -62.01919 | 6121 ft | 296 kts | 64° |
| 2026-05-08 00:09 | -38.70245 | -61.99624 | 7116 ft | 297 kts | 65° |
| 2026-05-08 00:09 | -38.69252 | -61.97290 | 8105 ft | 300 kts | 65° |
| 2026-05-08 00:09 | -38.67939 | -61.95184 | 9021 ft | 311 kts | 38° |
| 2026-05-08 00:10 | -38.65954 | -61.94096 | 9922 ft | 314 kts | 10° |
| 2026-05-08 00:10 | -38.63795 | -61.93485 | 10557 ft | 329 kts | 18° |
| 2026-05-08 00:10 | -38.61612 | -61.92304 | 10934 ft | 350 kts | 26° |
| 2026-05-08 00:10 | -38.59438 | -61.90823 | 11670 ft | 356 kts | 30° |
| 2026-05-08 00:11 | -38.57302 | -61.89192 | 12520 ft | 360 kts | 32° |
| 2026-05-08 00:11 | -38.55194 | -61.87454 | 13435 ft | 360 kts | 34° |
| 2026-05-08 00:11 | -38.53117 | -61.85677 | 14280 ft | 360 kts | 34° |
| 2026-05-08 00:11 | -38.51035 | -61.83879 | 15044 ft | 362 kts | 34° |
| 2026-05-08 00:12 | -38.48933 | -61.82073 | 15778 ft | 365 kts | 33° |
| 2026-05-08 00:12 | -38.46812 | -61.80272 | 16503 ft | 368 kts | 33° |
| 2026-05-08 00:12 | -38.44660 | -61.78465 | 17228 ft | 371 kts | 32° |
| 2026-05-08 00:12 | -38.42493 | -61.76659 | 17952 ft | 374 kts | 32° |
| 2026-05-08 00:13 | -38.40302 | -61.74843 | 18577 ft | 377 kts | 32° |
| 2026-05-08 00:13 | -38.38087 | -61.73010 | 19161 ft | 382 kts | 32° |
| 2026-05-08 00:13 | -38.35848 | -61.71156 | 19730 ft | 386 kts | 32° |
| 2026-05-08 00:13 | -38.33581 | -61.69276 | 20301 ft | 391 kts | 32° |
| 2026-05-08 00:14 | -38.31286 | -61.67371 | 20853 ft | 396 kts | 32° |
| 2026-05-08 00:14 | -38.28965 | -61.65446 | 21413 ft | 401 kts | 32° |
| 2026-05-08 00:14 | -38.26649 | -61.63528 | 21954 ft | 405 kts | 32° |
| 2026-05-08 00:14 | -38.24272 | -61.61562 | 22509 ft | 410 kts | 32° |
| 2026-05-08 00:15 | -38.21862 | -61.59567 | 23057 ft | 414 kts | 32° |
| 2026-05-08 00:15 | -38.19434 | -61.57556 | 23518 ft | 419 kts | 32° |
| 2026-05-08 00:15 | -38.16974 | -61.55519 | 23932 ft | 424 kts | 32° |
| 2026-05-08 00:15 | -38.14487 | -61.53461 | 24312 ft | 429 kts | 32° |
| 2026-05-08 00:16 | -38.11965 | -61.51379 | 24698 ft | 434 kts | 32° |
| 2026-05-08 00:16 | -38.09418 | -61.49282 | 25089 ft | 439 kts | 32° |
| 2026-05-08 00:16 | -38.06843 | -61.47165 | 25487 ft | 442 kts | 32° |
| 2026-05-08 00:16 | -38.04251 | -61.45034 | 25880 ft | 446 kts | 32° |
| 2026-05-08 00:17 | -38.01637 | -61.42883 | 26278 ft | 450 kts | 32° |
| 2026-05-08 00:17 | -37.99385 | -61.41028 | 26590 ft | 453 kts | 32° |
| 2026-05-08 00:17 | -37.97411 | -61.39405 | 26876 ft | 456 kts | 32° |
| 2026-05-08 00:17 | -37.94739 | -61.37210 | 27256 ft | 459 kts | 32° |
| 2026-05-08 00:18 | -37.92041 | -61.34998 | 27639 ft | 463 kts | 32° |
| 2026-05-08 00:18 | -37.89330 | -61.32777 | 28025 ft | 466 kts | 32° |
| 2026-05-08 00:18 | -37.86631 | -61.30569 | 28397 ft | 469 kts | 32° |
| 2026-05-08 00:18 | -37.83879 | -61.28322 | 28764 ft | 472 kts | 32° |
| 2026-05-08 00:19 | -37.81105 | -61.26061 | 29129 ft | 476 kts | 32° |
| 2026-05-08 00:19 | -37.78315 | -61.23792 | 29485 ft | 478 kts | 32° |
| 2026-05-08 00:19 | -37.75505 | -61.21508 | 29818 ft | 482 kts | 32° |
| 2026-05-08 00:19 | -37.72681 | -61.19213 | 30108 ft | 484 kts | 32° |
| 2026-05-08 00:20 | -37.69846 | -61.16907 | 30423 ft | 485 kts | 32° |
| 2026-05-08 00:20 | -37.67006 | -61.14596 | 30744 ft | 486 kts | 32° |
| 2026-05-08 00:20 | -37.64157 | -61.12280 | 31050 ft | 488 kts | 32° |
| 2026-05-08 00:20 | -37.61302 | -61.09962 | 31359 ft | 489 kts | 31° |
| 2026-05-08 00:21 | -37.58446 | -61.07647 | 31783 ft | 487 kts | 31° |
| 2026-05-08 00:21 | -37.55605 | -61.05349 | 32236 ft | 484 kts | 31° |
| 2026-05-08 00:21 | -37.52772 | -61.03058 | 32602 ft | 483 kts | 31° |
| 2026-05-08 00:21 | -37.49955 | -61.00776 | 32698 ft | 477 kts | 31° |
| 2026-05-08 00:22 | -37.47207 | -60.98548 | 32710 ft | 464 kts | 31° |
| 2026-05-08 00:22 | -37.44509 | -60.96367 | 32707 ft | 459 kts | 31° |
| 2026-05-08 00:22 | -37.39144 | -60.92046 | 32704 ft | 456 kts | 30° |
| 2026-05-08 00:23 | -37.33801 | -60.87760 | 32705 ft | 455 kts | 30° |
| 2026-05-08 00:23 | -37.28474 | -60.83490 | 32701 ft | 453 kts | 30° |
| 2026-05-08 00:24 | -37.23161 | -60.79233 | 32703 ft | 452 kts | 30° |
| 2026-05-08 00:24 | -37.17918 | -60.75020 | 32705 ft | 451 kts | 30° |
| 2026-05-08 00:25 | -37.12626 | -60.70792 | 32706 ft | 450 kts | 30° |
| 2026-05-08 00:25 | -37.07349 | -60.66590 | 32704 ft | 449 kts | 30° |
| 2026-05-08 00:26 | -37.02075 | -60.62396 | 32715 ft | 449 kts | 29° |
| 2026-05-08 00:26 | -36.96816 | -60.58222 | 32709 ft | 447 kts | 29° |
| 2026-05-08 00:27 | -36.91568 | -60.54052 | 32701 ft | 446 kts | 29° |
| 2026-05-08 00:27 | -36.86338 | -60.49898 | 32659 ft | 446 kts | 29° |
| 2026-05-08 00:28 | -36.81089 | -60.45741 | 32674 ft | 444 kts | 29° |
| 2026-05-08 00:28 | -36.75876 | -60.41622 | 32684 ft | 443 kts | 29° |
| 2026-05-08 00:29 | -36.70675 | -60.37521 | 32692 ft | 442 kts | 29° |
| 2026-05-08 00:29 | -36.68230 | -60.35184 | 32693 ft | 446 kts | 40° |
| 2026-05-08 00:29 | -36.65996 | -60.32510 | 32695 ft | 446 kts | 41° |
| 2026-05-08 00:30 | -36.61550 | -60.27135 | 32694 ft | 445 kts | 41° |
| 2026-05-08 00:30 | -36.57125 | -60.21767 | 32685 ft | 443 kts | 41° |
| 2026-05-08 00:31 | -36.52712 | -60.16426 | 32685 ft | 442 kts | 40° |
| 2026-05-08 00:31 | -36.48309 | -60.11123 | 32679 ft | 440 kts | 40° |
| 2026-05-08 00:32 | -36.43917 | -60.05842 | 32678 ft | 439 kts | 40° |
| 2026-05-08 00:32 | -36.39529 | -60.00574 | 32681 ft | 438 kts | 40° |
| 2026-05-08 00:33 | -36.35161 | -59.95331 | 32676 ft | 436 kts | 40° |
| 2026-05-08 00:33 | -36.30839 | -59.90149 | 32675 ft | 434 kts | 39° |
| 2026-05-08 00:34 | -36.26497 | -59.84961 | 32674 ft | 433 kts | 39° |
| 2026-05-08 00:34 | -36.22160 | -59.79805 | 32669 ft | 431 kts | 39° |
| 2026-05-08 00:35 | -36.17846 | -59.74659 | 32668 ft | 430 kts | 39° |
| 2026-05-08 00:35 | -36.15703 | -59.72107 | 32501 ft | 428 kts | 39° |
| 2026-05-08 00:35 | -36.13554 | -59.69550 | 32089 ft | 426 kts | 38° |
| 2026-05-08 00:36 | -36.11426 | -59.67022 | 31643 ft | 423 kts | 38° |
| 2026-05-08 00:36 | -36.09313 | -59.64515 | 31197 ft | 420 kts | 38° |
| 2026-05-08 00:36 | -36.07919 | -59.62862 | 30903 ft | 416 kts | 37° |
| 2026-05-08 00:36 | -36.05154 | -59.59585 | 30322 ft | 408 kts | 37° |
| 2026-05-08 00:37 | -36.03804 | -59.57986 | 30041 ft | 403 kts | 36° |
| 2026-05-08 00:37 | -36.01791 | -59.55601 | 29596 ft | 397 kts | 36° |
| 2026-05-08 00:37 | -35.99173 | -59.52503 | 28914 ft | 390 kts | 36° |
| 2026-05-08 00:38 | -35.95915 | -59.48658 | 28097 ft | 384 kts | 36° |
| 2026-05-08 00:38 | -35.93987 | -59.46385 | 27618 ft | 382 kts | 36° |
| 2026-05-08 00:38 | -35.92094 | -59.44152 | 27154 ft | 381 kts | 36° |
| 2026-05-08 00:38 | -35.90186 | -59.41904 | 26678 ft | 379 kts | 36° |
| 2026-05-08 00:39 | -35.88281 | -59.39663 | 26219 ft | 377 kts | 36° |
| 2026-05-08 00:39 | -35.86385 | -59.37434 | 25730 ft | 375 kts | 37° |
| 2026-05-08 00:39 | -35.84495 | -59.35213 | 25277 ft | 374 kts | 37° |
| 2026-05-08 00:39 | -35.82615 | -59.33005 | 24845 ft | 373 kts | 37° |
| 2026-05-08 00:40 | -35.80743 | -59.30810 | 24407 ft | 371 kts | 37° |
| 2026-05-08 00:40 | -35.78873 | -59.28619 | 23934 ft | 370 kts | 37° |
| 2026-05-08 00:40 | -35.77011 | -59.26434 | 23489 ft | 369 kts | 37° |
| 2026-05-08 00:40 | -35.75157 | -59.24263 | 23013 ft | 368 kts | 37° |
| 2026-05-08 00:41 | -35.73307 | -59.22098 | 22464 ft | 366 kts | 37° |
| 2026-05-08 00:41 | -35.71469 | -59.19948 | 21946 ft | 364 kts | 37° |
| 2026-05-08 00:41 | -35.69642 | -59.17810 | 21426 ft | 362 kts | 37° |
| 2026-05-08 00:41 | -35.67821 | -59.15679 | 20928 ft | 360 kts | 38° |
| 2026-05-08 00:42 | -35.66012 | -59.13563 | 20437 ft | 357 kts | 38° |
| 2026-05-08 00:42 | -35.64217 | -59.11466 | 19956 ft | 355 kts | 38° |
| 2026-05-08 00:42 | -35.62431 | -59.09383 | 19502 ft | 352 kts | 38° |
| 2026-05-08 00:42 | -35.60660 | -59.07323 | 19038 ft | 350 kts | 39° |
| 2026-05-08 00:43 | -35.58942 | -59.05328 | 18604 ft | 347 kts | 39° |
| 2026-05-08 00:43 | -35.57193 | -59.03294 | 18174 ft | 345 kts | 39° |
| 2026-05-08 00:43 | -35.55457 | -59.01276 | 17721 ft | 343 kts | 40° |
| 2026-05-08 00:43 | -35.53731 | -58.99269 | 17213 ft | 341 kts | 40° |
| 2026-05-08 00:44 | -35.52015 | -58.97271 | 16741 ft | 339 kts | 40° |
| 2026-05-08 00:44 | -35.50315 | -58.95289 | 16271 ft | 337 kts | 40° |
| 2026-05-08 00:44 | -35.48615 | -58.93313 | 15813 ft | 335 kts | 40° |
| 2026-05-08 00:44 | -35.46926 | -58.91356 | 15357 ft | 334 kts | 40° |
| 2026-05-08 00:45 | -35.45239 | -58.89403 | 14918 ft | 332 kts | 40° |
| 2026-05-08 00:45 | -35.43560 | -58.87462 | 14479 ft | 331 kts | 40° |
| 2026-05-08 00:45 | -35.41912 | -58.85557 | 14059 ft | 329 kts | 40° |
| 2026-05-08 00:45 | -35.40232 | -58.83612 | 13638 ft | 328 kts | 40° |
| 2026-05-08 00:46 | -35.38577 | -58.81699 | 13198 ft | 326 kts | 40° |
| 2026-05-08 00:46 | -35.36931 | -58.79798 | 12744 ft | 324 kts | 40° |
| 2026-05-08 00:46 | -35.35294 | -58.77906 | 12302 ft | 322 kts | 40° |
| 2026-05-08 00:46 | -35.33672 | -58.76032 | 11868 ft | 320 kts | 40° |
| 2026-05-08 00:47 | -35.32056 | -58.74169 | 11463 ft | 318 kts | 40° |
| 2026-05-08 00:47 | -35.30450 | -58.72319 | 11050 ft | 316 kts | 40° |
| 2026-05-08 00:47 | -35.28860 | -58.70487 | 10650 ft | 314 kts | 40° |
| 2026-05-08 00:47 | -35.27269 | -58.68651 | 10262 ft | 312 kts | 40° |
| 2026-05-08 00:48 | -35.25692 | -58.66833 | 9867 ft | 310 kts | 40° |
| 2026-05-08 00:48 | -35.24128 | -58.65033 | 9481 ft | 307 kts | 40° |
| 2026-05-08 00:48 | -35.22577 | -58.63251 | 9058 ft | 304 kts | 40° |
| 2026-05-08 00:48 | -35.21062 | -58.61511 | 8651 ft | 300 kts | 40° |
| 2026-05-08 00:49 | -35.19566 | -58.59791 | 8253 ft | 291 kts | 40° |
| 2026-05-08 00:49 | -35.18088 | -58.58094 | 7874 ft | 291 kts | 40° |
| 2026-05-08 00:49 | -35.16612 | -58.56402 | 7501 ft | 292 kts | 41° |
| 2026-05-08 00:49 | -35.15133 | -58.54707 | 7111 ft | 292 kts | 41° |
| 2026-05-08 00:50 | -35.13648 | -58.53004 | 6747 ft | 293 kts | 42° |
| 2026-05-08 00:50 | -35.12166 | -58.51305 | 6383 ft | 292 kts | 42° |
| 2026-05-08 00:50 | -35.10678 | -58.49602 | 6040 ft | 292 kts | 43° |
| 2026-05-08 00:50 | -35.09196 | -58.47903 | 5690 ft | 292 kts | 43° |
| 2026-05-08 00:51 | -35.07711 | -58.46202 | 5345 ft | 291 kts | 43° |
| 2026-05-08 00:51 | -35.06276 | -58.44562 | 5012 ft | 290 kts | 43° |
| 2026-05-08 00:51 | -35.04822 | -58.42905 | 4681 ft | 289 kts | 43° |
| 2026-05-08 00:51 | -35.03359 | -58.41239 | 4341 ft | 288 kts | 43° |
| 2026-05-08 00:52 | -35.01897 | -58.39576 | 4000 ft | 287 kts | 43° |
| 2026-05-08 00:52 | -35.00440 | -58.37917 | 3661 ft | 286 kts | 42° |
| 2026-05-08 00:52 | -34.98999 | -58.36271 | 3327 ft | 281 kts | 42° |
| 2026-05-08 00:52 | -34.97570 | -58.34685 | 3048 ft | 273 kts | 36° |
| 2026-05-08 00:53 | -34.95962 | -58.33645 | 3000 ft | 254 kts | 14° |
| 2026-05-08 00:53 | -34.94254 | -58.33239 | 2900 ft | 248 kts | 2° |
| 2026-05-08 00:53 | -34.92644 | -58.32977 | 2814 ft | 241 kts | 1° |
| 2026-05-08 00:53 | -34.91017 | -58.32707 | 2721 ft | 231 kts | 1° |
| 2026-05-08 00:54 | -34.89459 | -58.32448 | 2641 ft | 220 kts | 1° |
| 2026-05-08 00:54 | -34.88109 | -58.32237 | 2573 ft | 206 kts | 358° |
| 2026-05-08 00:54 | -34.86836 | -58.32542 | 2517 ft | 169 kts | 323° |
| 2026-05-08 00:54 | -34.86030 | -58.33374 | 2442 ft | 141 kts | 297° |
| 2026-05-08 00:55 | -34.85641 | -58.34395 | 2341 ft | 130 kts | 276° |
| 2026-05-08 00:55 | -34.85459 | -58.35462 | 2246 ft | 128 kts | 275° |
| 2026-05-08 00:55 | -34.85270 | -58.36521 | 2153 ft | 128 kts | 275° |
| 2026-05-08 00:55 | -34.85080 | -58.37578 | 2061 ft | 128 kts | 276° |
| 2026-05-08 00:56 | -34.84890 | -58.38645 | 1970 ft | 129 kts | 276° |
| 2026-05-08 00:56 | -34.84699 | -58.39714 | 1879 ft | 129 kts | 276° |
| 2026-05-08 00:56 | -34.84508 | -58.40786 | 1783 ft | 129 kts | 276° |
| 2026-05-08 00:56 | -34.84319 | -58.41833 | 1694 ft | 121 kts | 276° |
| 2026-05-08 00:57 | -34.84145 | -58.42787 | 1548 ft | 113 kts | 277° |
| 2026-05-08 00:57 | -34.83976 | -58.43725 | 1395 ft | 111 kts | 276° |
| 2026-05-08 00:57 | -34.83814 | -58.44634 | 1247 ft | 112 kts | 276° |
| 2026-05-08 00:57 | -34.83649 | -58.45563 | 1099 ft | 112 kts | 275° |
| 2026-05-08 00:58 | -34.83484 | -58.46490 | 943 ft | 113 kts | 277° |
| 2026-05-08 00:58 | -34.83318 | -58.47427 | 795 ft | 114 kts | 278° |
| 2026-05-08 00:58 | -34.83149 | -58.48375 | 653 ft | 115 kts | 279° |
| 2026-05-08 00:58 | -34.82979 | -58.49324 | 507 ft | 114 kts | 279° |
| 2026-05-08 00:59 | -34.82808 | -58.50267 | 351 ft | 114 kts | 280° |
| 2026-05-08 00:59 | -34.82640 | -58.51201 | 224 ft | 114 kts | 279° |
| 2026-05-08 00:59 | -34.82485 | -58.52120 | 93 ft | 109 kts | 282° |
| 2026-05-08 00:59 | -34.82344 | -58.52901 | 83 ft | 73 kts | 283° |
| 2026-05-08 01:00 | -34.82266 | -58.53309 | 85 ft | 29 kts | 284° |
| 2026-05-08 01:00 | -34.82210 | -58.53453 | 81 ft | 16 kts | 321° |
| 2026-05-08 01:00 | -34.82102 | -58.53520 | 73 ft | 18 kts | 335° |
| 2026-05-08 01:00 | -34.81987 | -58.53585 | 71 ft | 16 kts | 334° |
| 2026-05-08 01:01 | -34.81882 | -58.53640 | 75 ft | 17 kts | 337° |
| 2026-05-08 01:01 | -34.81773 | -58.53706 | 73 ft | 18 kts | 334° |
| 2026-05-08 01:01 | -34.81660 | -58.53766 | 71 ft | 17 kts | 350° |
| 2026-05-08 01:01 | -34.81626 | -58.53728 | 72 ft | 5 kts | 129° |
| 2026-05-08 01:02 | -34.81652 | -58.53690 | 75 ft | 6 kts | 128° |
| 2026-05-08 01:02 | -34.81676 | -58.53651 | 74 ft | 3 kts | 127° |
| 2026-05-08 01:02 | -34.81677 | -58.53649 | 74 ft | 0 kts | 127° |